Time;durP1;ratioP1;P1;durP2;ratioP2;P2;SDS_P1;SDS_P2;PMS_P1;PMS_P2;Temp;Humidity;BMP_temperature;BMP_pressure;BME280_temperature;BME280_humidity;BME280_pressure;Samples;Min_cycle;Max_cycle;Signal;HPM_P1;HPM_P2
2023/07/03 00:01:54;;;;;;;14.88;4.32;;;;;;;19.49;89.41;99913.81;10457586;28;20081;-71
2023/07/03 00:06:54;;;;;;;15.45;4.47;;;;;;;19.01;89.56;99861.09;10457127;28;20068;-71
2023/07/03 00:11:55;;;;;;;13.88;5.03;;;;;;;19.33;90.12;99923.47;10455581;28;20040;-71
2023/07/03 00:16:56;;;;;;;14.05;4.72;;;;;;;19.27;89.76;99918.19;10456107;28;20037;-71
2023/07/03 00:22:00;;;;;;;22.80;5.90;;;;;;;18.74;90.18;99857.22;10455779;28;20047;-71
2023/07/03 00:27:01;;;;;;;18.08;6.43;;;;;;;19.05;90.90;99920.66;10457514;28;20168;-71
2023/07/03 00:32:02;;;;;;;24.05;8.48;;;;;;;18.61;90.72;99859.06;10414398;28;20124;-71
2023/07/03 00:37:02;;;;;;;30.13;10.50;;;;;;;18.57;90.64;99860.56;10414131;28;20510;-71
2023/07/03 00:42:04;;;;;;;33.40;11.82;;;;;;;18.69;90.85;99893.66;10414174;28;20124;-71
2023/07/03 00:47:05;;;;;;;36.33;15.48;;;;;;;18.99;91.66;99943.13;10414363;28;20034;-71
2023/07/03 00:52:09;;;;;;;52.13;16.73;;;;;;;18.95;92.47;99941.94;10414007;28;20041;-71
2023/07/03 00:57:11;;;;;;;;;;;;;;;19.12;92.21;99954.50;10413805;28;20050;-72
2023/07/03 01:02:37;;;;;;;25.05;11.10;;;;;;;18.95;93.99;99948.16;10414065;28;19917;-71
2023/07/03 01:07:39;;;;;;;40.95;11.23;;;;;;;18.38;92.26;99867.09;10411975;28;20179;-71
2023/07/03 01:12:45;;;;;;;22.00;8.48;;;;;;;18.91;94.09;99955.06;10414087;28;20366;-71
2023/07/03 01:17:50;;;;;;;22.10;8.05;;;;;;;18.46;93.24;99875.66;10413430;28;20036;-71
2023/07/03 01:23:15;;;;;;;24.17;7.03;;;;;;;18.79;93.78;99956.91;10412667;28;20118;-71
2023/07/03 01:28:20;;;;;;;35.50;9.63;;;;;;;18.68;93.79;99967.38;10412827;28;20460;-71
2023/07/03 01:33:26;;;;;;;20.05;8.77;;;;;;;18.69;94.60;99971.69;10413968;28;20136;-72
2023/07/03 01:38:29;;;;;;;32.80;8.65;;;;;;;18.78;94.29;99990.25;10413482;28;20040;-71
2023/07/03 01:43:30;;;;;;;23.95;7.85;;;;;;;18.74;93.83;99983.69;10413096;28;20041;-71
2023/07/03 01:48:32;;;;;;;16.38;8.10;;;;;;;18.60;94.86;99951.56;10412080;28;20052;-71
2023/07/03 01:53:43;;;;;;;33.92;8.55;;;;;;;18.80;95.73;99993.53;10412877;28;20448;-71
2023/07/03 01:58:50;;;;;;;26.73;8.02;;;;;;;18.73;95.52;99982.88;10411726;28;20175;-71
2023/07/03 02:04:10;;;;;;;29.95;8.48;;;;;;;18.80;96.53;99972.00;10412680;28;20401;-72
2023/07/03 02:09:11;;;;;;;46.92;9.13;;;;;;;18.99;94.19;99972.72;10411026;28;20124;-71
2023/07/03 02:14:12;;;;;;;24.85;8.18;;;;;;;18.85;94.18;99921.81;10439855;28;20041;-71
2023/07/03 02:19:16;;;;;;;21.80;9.15;;;;;;;19.42;95.46;99980.50;10453538;28;20052;-71
2023/07/03 02:24:17;;;;;;;17.75;8.90;;;;;;;19.75;93.89;99996.06;10452723;28;20037;-71
2023/07/03 02:29:18;;;;;;;15.02;7.97;;;;;;;20.24;92.84;99995.69;10453526;28;20500;-71
2023/07/03 02:34:20;;;;;;;36.05;8.65;;;;;;;21.07;90.84;100005.03;10453478;28;20049;-71
2023/07/03 02:39:21;;;;;;;13.02;6.63;;;;;;;21.77;87.21;99943.38;10460079;28;20041;-71
2023/07/03 02:44:22;;;;;;;28.17;8.00;;;;;;;22.91;83.45;99966.75;10459715;28;20041;-71
2023/07/03 02:49:27;;;;;;;32.15;7.20;;;;;;;24.44;77.50;100021.09;10459770;28;20045;-71
2023/07/03 02:54:28;;;;;;;20.55;5.90;;;;;;;25.34;74.77;100009.78;10460167;28;20029;-71
2023/07/03 02:59:29;;;;;;;14.73;4.63;;;;;;;26.69;70.43;100025.38;10460829;28;20049;-71
2023/07/03 03:04:30;;;;;;;11.35;4.85;;;;;;;27.34;66.68;100025.94;10459145;28;20064;-71
2023/07/03 03:09:30;;;;;;;26.60;6.10;;;;;;;28.38;63.30;100010.84;10458689;28;20076;-71
2023/07/03 03:14:31;;;;;;;24.00;4.90;;;;;;;28.75;60.51;99995.56;10441525;28;20037;-71
2023/07/03 03:19:32;;;;;;;16.20;5.43;;;;;;;28.34;59.15;99974.31;10418018;28;20037;-72
2023/07/03 03:24:33;;;;;;;17.95;5.05;;;;;;;28.58;59.26;100020.72;10417027;28;20041;-72
2023/07/03 03:29:35;;;;;;;16.85;4.95;;;;;;;28.43;59.00;100014.34;10417625;28;20057;-71
2023/07/03 03:34:35;;;;;;;12.10;5.10;;;;;;;29.18;56.28;100020.88;10417119;28;20405;-72
2023/07/03 03:39:36;;;;;;;17.73;5.30;;;;;;;29.18;55.79;100009.13;10432706;28;20041;-71
2023/07/03 03:44:37;;;;;;;18.38;5.45;;;;;;;30.52;52.21;100025.38;10416324;28;20037;-71
2023/07/03 03:49:39;;;;;;;25.85;5.85;;;;;;;31.08;50.92;100021.34;10418720;28;20049;-71
2023/07/03 03:54:39;;;;;;;16.65;5.47;;;;;;;31.80;48.97;100016.69;10486512;28;20141;-71
2023/07/03 03:59:41;;;;;;;16.40;5.60;;;;;;;32.08;48.37;100022.78;10480718;28;20060;-72
2023/07/03 04:04:42;;;;;;;12.20;5.43;;;;;;;32.23;47.39;100022.34;10467780;28;20129;-72
2023/07/03 04:09:43;;;;;;;11.80;4.90;;;;;;;32.27;46.87;99965.56;10477524;28;20049;-71
2023/07/03 04:14:44;;;;;;;14.18;5.15;;;;;;;32.86;46.91;100019.31;10480930;28;20200;-71
2023/07/03 04:19:44;;;;;;;11.73;5.35;;;;;;;33.00;45.22;99999.88;10459025;28;20045;-71
2023/07/03 04:24:45;;;;;;;16.42;4.57;;;;;;;33.10;45.06;100024.31;10473561;28;20082;-71
2023/07/03 04:29:46;;;;;;;28.50;6.28;;;;;;;33.46;45.27;100021.16;10470535;28;20095;-71
2023/07/03 04:34:47;;;;;;;18.08;4.35;;;;;;;33.83;44.94;100027.00;10477878;28;20040;-71
2023/07/03 04:39:47;;;;;;;15.02;5.47;;;;;;;33.68;44.69;100025.63;10467498;28;20040;-71
2023/07/03 04:44:48;;;;;;;14.30;5.63;;;;;;;33.51;44.19;100029.25;10470553;28;20549;-68
2023/07/03 04:49:49;;;;;;;15.70;5.93;;;;;;;33.56;45.26;100020.78;10464884;28;20048;-68
2023/07/03 04:54:50;;;;;;;19.77;6.22;;;;;;;33.15;45.40;99993.88;10488368;28;20052;-69
2023/07/03 04:59:51;;;;;;;13.60;5.93;;;;;;;33.22;44.51;99985.13;10494655;28;20040;-69
2023/07/03 05:04:52;;;;;;;16.55;6.05;;;;;;;33.22;45.27;100029.16;10496394;28;20041;-68
2023/07/03 05:09:53;;;;;;;14.93;5.95;;;;;;;32.57;44.64;99956.72;10495737;28;20036;-68
2023/07/03 05:14:56;;;;;;;10.17;5.30;;;;;;;32.43;45.82;100006.34;10496342;28;20450;-68
2023/07/03 05:19:57;;;;;;;17.25;5.05;;;;;;;31.87;45.37;100005.25;10496133;28;20548;-68
2023/07/03 05:25:00;;;;;;;12.30;5.10;;;;;;;31.34;48.47;99995.97;10495729;28;20068;-68
2023/07/03 05:30:00;;;;;;;;;;;;;;;31.71;47.80;100015.84;10497000;28;20145;-68
2023/07/03 05:35:04;;;;;;;14.23;5.40;;;;;;;31.01;47.94;99999.00;10495771;28;20395;-68
2023/07/03 05:40:06;;;;;;;9.38;4.68;;;;;;;30.91;48.34;100004.75;10495729;28;20043;-68
2023/07/03 05:45:08;;;;;;;10.15;4.32;;;;;;;30.96;49.08;100001.88;10495177;28;20051;-68
2023/07/03 05:50:09;;;;;;;16.73;4.00;;;;;;;31.02;48.85;100000.63;10495825;28;20043;-68
2023/07/03 05:55:10;;;;;;;6.90;3.65;;;;;;;30.94;48.46;99982.19;10495554;28;20174;-68
2023/07/03 06:00:14;;;;;;;14.40;3.42;;;;;;;31.16;47.46;99986.81;10495417;28;20082;-68
2023/07/03 06:05:16;;;;;;;4.38;3.03;;;;;;;31.19;46.20;99974.41;10495329;28;20479;-68
2023/07/03 06:10:17;;;;;;;7.00;2.87;;;;;;;31.23;44.88;100011.91;10496832;28;20519;-68
2023/07/03 06:15:18;;;;;;;12.50;3.25;;;;;;;31.02;45.06;99939.47;10503208;28;20037;-68
2023/07/03 06:20:18;;;;;;;5.25;2.85;;;;;;;31.52;44.17;100000.44;10503232;28;20048;-69
2023/07/03 06:25:19;;;;;;;5.70;2.85;;;;;;;31.64;43.80;99997.09;10502726;28;20434;-68
2023/07/03 06:30:20;;;;;;;8.63;3.47;;;;;;;31.81;43.38;99991.66;10502740;28;20478;-68
2023/07/03 06:35:21;;;;;;;5.40;3.00;;;;;;;32.00;42.93;99996.09;10502066;28;20067;-68
2023/07/03 06:40:22;;;;;;;5.80;3.00;;;;;;;31.41;41.60;99916.78;10501486;28;20568;-68
2023/07/03 06:45:22;;;;;;;3.67;2.60;;;;;;;31.49;41.43;99929.69;10501923;28;20047;-68
2023/07/03 06:50:23;;;;;;;5.25;2.80;;;;;;;31.70;40.83;99940.91;10500985;28;20055;-68
2023/07/03 06:55:24;;;;;;;4.75;2.63;;;;;;;31.97;40.26;99977.50;10502070;28;20048;-68
2023/07/03 07:00:25;;;;;;;7.00;2.97;;;;;;;31.61;39.85;99915.34;10501251;28;20044;-68
2023/07/03 07:05:28;;;;;;;14.50;3.00;;;;;;;31.79;41.26;99919.75;10501211;28;20080;-68
2023/07/03 07:10:29;;;;;;;8.95;2.80;;;;;;;32.41;41.15;99978.38;10500998;28;20094;-68
2023/07/03 07:15:34;;;;;;;5.15;2.60;;;;;;;32.16;41.49;99925.81;10500062;28;20565;-69
2023/07/03 07:20:40;;;;;;;10.32;2.90;;;;;;;32.18;40.62;99931.78;10499347;28;20114;-68
2023/07/03 07:25:40;;;;;;;5.95;3.00;;;;;;;32.55;38.72;99992.81;10501090;28;20033;-68
2023/07/03 07:30:41;;;;;;;6.60;2.67;;;;;;;32.76;39.17;99978.38;10500581;28;20068;-68
2023/07/03 07:35:43;;;;;;;5.25;3.03;;;;;;;32.62;39.06;99921.63;10499445;28;20044;-68
2023/07/03 07:40:44;;;;;;;7.93;2.85;;;;;;;32.78;38.81;99907.34;10471871;28;20439;-69
2023/07/03 07:45:52;;;;;;;7.95;2.80;;;;;;;32.95;36.96;99924.63;10458674;28;20037;-68
2023/07/03 07:50:53;;;;;;;4.78;2.58;;;;;;;33.26;36.51;99959.34;10457339;28;20049;-69
2023/07/03 07:55:58;;;;;;;8.07;2.92;;;;;;;33.05;36.98;99908.91;10457172;28;20400;-69
2023/07/03 08:00:59;;;;;;;8.60;3.00;;;;;;;33.40;36.43;99961.88;10457035;28;20136;-68
2023/07/03 08:06:03;;;;;;;5.70;2.60;;;;;;;33.59;35.80;99951.28;10457615;28;20186;-70
2023/07/03 08:11:05;;;;;;;6.88;2.58;;;;;;;33.77;35.32;99953.94;10456850;28;20063;-68
2023/07/03 08:16:08;;;;;;;4.55;2.50;;;;;;;33.83;33.63;99963.63;10456269;28;20470;-69
2023/07/03 08:21:09;;;;;;;27.00;3.30;;;;;;;33.82;34.50;99949.06;10455985;28;20067;-69
2023/07/03 08:26:17;;;;;;;5.88;2.50;;;;;;;33.86;34.46;99960.22;10455904;28;20057;-69
2023/07/03 08:31:18;;;;;;;8.60;2.90;;;;;;;33.67;34.57;99932.31;10456877;28;20067;-69
2023/07/03 08:36:19;;;;;;;24.15;3.17;;;;;;;33.70;34.90;99923.38;10455127;28;20424;-68
2023/07/03 08:41:20;;;;;;;5.82;2.35;;;;;;;33.90;33.96;99943.84;10455972;28;20459;-68
2023/07/03 08:46:25;;;;;;;7.38;2.70;;;;;;;33.53;34.83;99947.09;10455272;28;20047;-70
2023/07/03 08:51:30;;;;;;;5.68;2.50;;;;;;;33.45;32.79;99928.66;10455697;28;20052;-69
2023/07/03 08:56:33;;;;;;;4.90;2.45;;;;;;;33.44;32.52;99884.94;10455309;28;20040;-70
2023/07/03 09:01:55;;;;;;;16.17;3.13;;;;;;;33.58;33.67;99874.53;10455248;28;20045;-70
2023/07/03 09:07:07;;;;;;;8.20;2.95;;;;;;;34.02;32.04;99927.38;10455362;28;20045;-69
2023/07/03 09:12:21;;;;;;;7.00;2.83;;;;;;;34.21;32.93;99924.19;10455525;28;20518;-69
2023/07/03 09:17:24;;;;;;;16.45;2.70;;;;;;;34.43;32.12;99931.28;10454764;28;20132;-69
2023/07/03 09:22:34;;;;;;;24.05;3.30;;;;;;;34.71;32.62;99931.53;10453949;28;20094;-69
2023/07/03 09:27:34;;;;;;;9.57;2.97;;;;;;;34.71;33.46;99915.00;10454245;28;20106;-69
2023/07/03 09:32:35;;;;;;;5.82;2.78;;;;;;;34.81;32.65;99905.47;10453880;28;20106;-70
2023/07/03 09:37:40;;;;;;;7.55;2.58;;;;;;;34.75;31.66;99916.72;10454629;28;20128;-70
2023/07/03 09:42:42;;;;;;;14.77;3.50;;;;;;;34.65;31.94;99891.53;10455095;28;20041;-69
2023/07/03 09:47:55;;;;;;;6.30;2.90;;;;;;;35.18;31.77;99903.59;10461783;28;20127;-70
2023/07/03 09:52:57;;;;;;;9.65;2.80;;;;;;;34.64;31.32;99906.44;10462615;28;20048;-70
2023/07/03 09:57:58;;;;;;;;;;;;;;;34.43;32.01;99907.28;10462756;28;20527;-69
2023/07/03 10:02:59;;;;;;;17.90;2.80;;;;;;;33.65;33.40;99907.84;10471590;28;19955;-69
2023/07/03 10:08:02;;;;;;;5.22;2.40;;;;;;;33.11;34.09;99902.09;10477070;28;20128;-71
2023/07/03 10:13:34;;;;;;;11.40;2.80;;;;;;;32.97;32.39;99911.34;10465640;28;20041;-70
2023/07/03 10:18:38;;;;;;;12.52;2.50;;;;;;;33.62;32.57;99906.56;10465361;28;20404;-70
2023/07/03 10:23:41;;;;;;;6.65;2.42;;;;;;;34.21;32.00;99891.09;10466748;28;20388;-70
2023/07/03 10:28:48;;;;;;;11.23;2.72;;;;;;;33.71;33.33;99900.19;10459961;28;20061;-69
2023/07/03 10:33:58;;;;;;;4.20;2.47;;;;;;;33.46;33.97;99893.69;10459349;28;20033;-71
2023/07/03 10:39:13;;;;;;;9.30;2.85;;;;;;;34.13;32.25;99903.00;10464938;28;20055;-69
2023/07/03 10:44:19;;;;;;;9.52;2.20;;;;;;;34.58;31.31;99900.34;10459306;28;20048;-69
2023/07/03 10:55:14;;;;;;;12.30;4.40;;;;;;;34.86;31.29;99899.75;10459143;28;20041;-70
2023/07/03 11:00:22;;;;;;;4.60;2.67;;;;;;;33.76;32.06;99842.16;10463585;28;20512;-71
2023/07/03 11:11:07;;;;;;;8.10;2.63;;;;;;;33.55;33.43;99891.72;10470849;28;20033;-69
2023/07/03 11:16:15;;;;;;;6.07;2.28;;;;;;;34.02;31.32;99878.59;10465533;28;20037;-70
2023/07/03 11:21:37;;;;;;;5.70;2.42;;;;;;;34.42;29.96;99883.59;10466248;28;20170;-70
2023/07/03 11:26:41;;;;;;;14.38;3.45;;;;;;;34.29;32.73;99874.47;10463494;28;20032;-70
2023/07/03 11:31:45;;;;;;;9.02;3.80;;;;;;;34.18;32.12;99873.28;10466041;28;20037;-71
2023/07/03 11:36:51;;;;;;;7.22;2.70;;;;;;;33.59;31.28;99816.34;10461330;28;20451;-69
2023/07/03 11:42:11;;;;;;;7.72;2.60;;;;;;;33.50;31.97;99828.53;10478483;28;20052;-69
2023/07/03 11:47:38;;;;;;;10.75;2.60;;;;;;;33.61;31.53;99876.59;10486051;28;20499;-69
2023/07/03 11:52:46;;;;;;;8.95;2.53;;;;;;;33.45;34.15;99870.84;10469858;28;20045;-69
2023/07/03 11:57:56;;;;;;;18.65;2.90;;;;;;;33.92;33.21;99872.66;10457132;28;20666;-69
2023/07/03 12:03:02;;;;;;;3.20;2.20;;;;;;;34.19;29.91;99883.16;10470751;28;20044;-70
2023/07/03 12:08:22;;;;;;;10.52;2.80;;;;;;;34.20;30.97;99818.63;10480731;28;20044;-69
2023/07/03 12:13:45;;;;;;;9.77;2.45;;;;;;;34.29;30.08;99815.78;10479254;28;20501;-69
2023/07/03 12:18:56;;;;;;;7.10;2.40;;;;;;;34.41;28.87;99807.53;10464072;28;20037;-70
2023/07/03 12:23:56;;;;;;;6.13;2.55;;;;;;;34.75;29.60;99844.19;10440974;28;20538;-70
2023/07/03 12:29:04;;;;;;;8.95;2.70;;;;;;;34.67;29.05;99806.44;10473932;28;20092;-69
2023/07/03 12:34:06;;;;;;;6.32;2.38;;;;;;;35.22;29.63;99858.38;10459302;28;20048;-70
2023/07/03 12:39:14;;;;;;;6.10;2.58;;;;;;;34.71;30.12;99780.59;10463751;28;20076;-70
2023/07/03 12:44:15;;;;;;;5.07;2.70;;;;;;;35.34;29.93;99854.00;10455422;28;20059;-71
2023/07/03 12:49:17;;;;;;;5.65;2.65;;;;;;;35.21;29.27;99856.78;10463139;28;20052;-69
2023/07/03 12:54:20;;;;;;;6.13;2.03;;;;;;;35.13;29.58;99843.91;10451931;28;20090;-69
2023/07/03 12:59:22;;;;;;;7.30;2.47;;;;;;;35.09;29.94;99867.00;10463981;28;20040;-69
2023/07/03 13:04:31;;;;;;;5.97;2.30;;;;;;;34.71;30.13;99807.41;10458663;28;20049;-70
2023/07/03 13:09:32;;;;;;;4.90;2.15;;;;;;;35.01;28.51;99856.88;10471855;28;20052;-69
2023/07/03 13:14:33;;;;;;;7.10;2.53;;;;;;;34.86;29.43;99823.28;10455420;28;20045;-69
2023/07/03 13:19:36;;;;;;;9.02;2.60;;;;;;;35.02;30.14;99852.94;10440518;28;20040;-70
2023/07/03 13:24:50;;;;;;;13.88;2.88;;;;;;;35.00;27.10;99853.28;10496062;28;20044;-69
2023/07/03 13:29:57;;;;;;;7.85;2.35;;;;;;;34.76;28.46;99848.53;10496084;28;20564;-68
2023/07/03 13:35:05;;;;;;;5.43;2.42;;;;;;;34.88;30.12;99854.09;10455295;28;20053;-69
2023/07/03 13:40:06;;;;;;;10.15;2.83;;;;;;;34.88;29.64;99851.34;10454664;28;20484;-69
2023/07/03 13:45:08;;;;;;;18.90;2.70;;;;;;;34.77;27.96;99852.94;10469806;28;20040;-69
2023/07/03 13:50:09;;;;;;;24.02;3.55;;;;;;;34.40;31.22;99858.31;10459661;28;20094;-69
2023/07/03 13:55:10;;;;;;;4.78;2.55;;;;;;;33.96;30.05;99808.28;10451929;28;20045;-69
2023/07/03 14:00:11;;;;;;;10.23;2.80;;;;;;;33.80;30.87;99848.59;10412658;28;20041;-69
2023/07/03 14:05:12;;;;;;;28.97;3.07;;;;;;;33.24;31.35;99806.69;10438081;28;20041;-68
2023/07/03 14:10:13;;;;;;;8.82;2.58;;;;;;;33.38;31.61;99860.34;10462799;28;20505;-69
2023/07/03 14:15:24;;;;;;;12.35;2.58;;;;;;;32.84;31.53;99799.56;10503807;28;20044;-69
2023/07/03 14:20:25;;;;;;;10.00;2.70;;;;;;;33.04;31.37;99850.31;10412595;28;20040;-69
2023/07/03 14:25:26;;;;;;;100.63;6.43;;;;;;;32.85;32.15;99861.72;10452152;28;20037;-69
2023/07/03 14:30:27;;;;;;;10.60;3.20;;;;;;;32.29;31.93;99737.16;10494373;28;20057;-69
2023/07/03 14:35:27;;;;;;;7.57;3.10;;;;;;;33.14;31.85;99854.63;10503023;28;20617;-69
2023/07/03 14:40:28;;;;;;;9.35;3.10;;;;;;;32.88;32.18;99838.25;10500696;28;20117;-69
2023/07/03 14:45:29;;;;;;;32.53;4.00;;;;;;;33.12;31.98;99838.47;10463342;28;20049;-69
2023/07/03 14:50:30;;;;;;;85.32;38.03;;;;;;;32.81;31.91;99829.66;10486599;28;20036;-70
2023/07/03 14:55:30;;;;;;;14.98;6.57;;;;;;;32.98;31.85;99848.91;10501145;28;20044;-70
2023/07/03 15:00:31;;;;;;;24.20;4.93;;;;;;;33.07;32.19;99844.16;10501477;28;20124;-69
2023/07/03 15:05:32;;;;;;;25.88;3.97;;;;;;;32.97;32.64;99828.00;10502275;28;20123;-69
2023/07/03 15:10:34;;;;;;;10.35;3.03;;;;;;;32.81;32.04;99802.16;10501922;28;20068;-69
2023/07/03 15:15:35;;;;;;;;;;;;;;;33.38;31.53;99873.31;10501761;28;20045;-69
2023/07/03 15:20:37;;;;;;;15.50;2.60;;;;;;;32.81;32.00;99808.47;10499206;28;19916;-69
2023/07/03 15:25:37;;;;;;;12.73;3.23;;;;;;;33.01;32.22;99856.50;10501176;28;20044;-69
2023/07/03 15:30:39;;;;;;;8.98;3.33;;;;;;;32.80;32.04;99845.38;10500547;28;20067;-69
2023/07/03 15:35:40;;;;;;;7.20;2.80;;;;;;;32.67;32.25;99855.44;10500235;28;20075;-68
2023/07/03 15:40:41;;;;;;;9.02;2.85;;;;;;;32.44;32.67;99843.03;10500361;28;20052;-70
2023/07/03 15:45:42;;;;;;;8.65;2.80;;;;;;;32.41;32.96;99869.22;10499362;28;20032;-69
2023/07/03 15:50:42;;;;;;;12.52;3.00;;;;;;;32.17;32.86;99852.44;10498763;28;20045;-69
2023/07/03 15:56:03;;;;;;;8.35;2.47;;;;;;;32.10;32.94;99877.66;10498795;28;20037;-68
2023/07/03 16:01:06;;;;;;;15.95;3.67;;;;;;;31.88;33.28;99877.75;10489543;28;20036;-69
2023/07/03 16:06:10;;;;;;;6.78;2.50;;;;;;;31.28;33.61;99821.59;10485920;28;20051;-69
2023/07/03 16:11:15;;;;;;;15.98;3.60;;;;;;;31.43;34.73;99881.56;10497567;28;20040;-69
2023/07/03 16:16:18;;;;;;;11.85;2.60;;;;;;;31.27;34.77;99886.66;10456903;28;20044;-69
2023/07/03 16:21:21;;;;;;;17.00;3.05;;;;;;;30.84;34.65;99842.56;10456184;28;20123;-69
2023/07/03 16:26:23;;;;;;;26.50;4.03;;;;;;;30.91;34.93;99893.09;10456164;28;20123;-69
2023/07/03 16:31:27;;;;;;;10.27;2.60;;;;;;;30.56;35.16;99863.84;10457025;28;20068;-69
2023/07/03 16:36:30;;;;;;;10.68;2.90;;;;;;;30.46;35.70;99898.63;10456276;28;20118;-69
2023/07/03 16:41:36;;;;;;;9.75;2.88;;;;;;;29.86;36.36;99837.84;10455646;28;20037;-69
2023/07/03 16:46:37;;;;;;;12.05;3.30;;;;;;;30.08;36.39;99894.56;10455857;28;20512;-69
2023/07/03 16:51:38;;;;;;;16.92;3.50;;;;;;;29.44;36.94;99832.44;10455566;28;20047;-69
2023/07/03 16:56:38;;;;;;;17.17;3.35;;;;;;;29.17;37.29;99829.69;10454828;28;20043;-69
2023/07/03 17:01:39;;;;;;;15.13;3.03;;;;;;;29.43;38.00;99909.34;10470946;28;20404;-70
2023/07/03 17:06:41;;;;;;;13.00;3.03;;;;;;;28.76;38.65;99838.66;10455935;28;20049;-69
2023/07/03 17:11:42;;;;;;;19.80;3.40;;;;;;;29.06;38.96;99922.06;10475601;28;20040;-69
2023/07/03 17:16:42;;;;;;;20.23;4.00;;;;;;;28.92;39.36;99930.22;10459756;28;20037;-68
2023/07/03 17:21:43;;;;;;;15.48;3.70;;;;;;;28.78;40.02;99927.47;10454634;28;20075;-69
2023/07/03 17:26:44;;;;;;;12.10;3.40;;;;;;;28.64;40.23;99943.81;10454944;28;20045;-69
2023/07/03 17:31:45;;;;;;;16.55;3.05;;;;;;;28.37;40.53;99930.00;10454581;28;20053;-69
2023/07/03 17:36:46;;;;;;;22.20;3.70;;;;;;;28.29;41.08;99952.50;10420737;28;20038;-68
2023/07/03 17:41:48;;;;;;;23.98;3.80;;;;;;;27.77;41.35;99884.94;10413732;28;20045;-69
2023/07/03 17:46:49;;;;;;;25.53;4.17;;;;;;;28.15;41.85;99961.47;10437381;28;20052;-68
2023/07/03 17:51:50;;;;;;;30.38;5.32;;;;;;;28.00;42.29;99961.66;10476086;28;20531;-68
2023/07/03 17:56:50;;;;;;;21.58;5.18;;;;;;;27.52;42.42;99918.84;10478925;28;20052;-69
2023/07/03 18:01:51;;;;;;;23.13;4.72;;;;;;;27.65;43.14;99971.88;10457225;28;20127;-68
2023/07/03 18:12:11;;;;;;;20.02;4.82;;;;;;;27.35;44.09;99985.84;10495960;28;20142;-70
2023/07/03 18:17:12;;;;;;;18.58;4.78;;;;;;;27.25;44.61;99993.03;10503610;28;20097;-68
2023/07/03 18:22:12;;;;;;;19.02;4.47;;;;;;;26.70;44.89;99932.41;10502778;28;20099;-69
2023/07/03 18:32:34;;;;;;;49.78;5.60;;;;;;;26.94;45.14;100008.00;10502254;28;20601;-69
2023/07/03 18:37:35;;;;;;;25.80;4.40;;;;;;;26.79;45.63;100019.81;10502018;28;20040;-68
2023/07/03 18:42:36;;;;;;;19.23;4.20;;;;;;;26.72;45.42;100020.16;10502445;28;20066;-68
2023/07/03 18:47:55;;;;;;;21.55;4.03;;;;;;;26.67;45.66;100020.19;10501177;28;20492;-69
2023/07/03 18:58:34;;;;;;;12.77;3.80;;;;;;;26.51;45.85;100015.94;10501359;28;20036;-69
2023/07/03 19:03:34;;;;;;;22.33;4.10;;;;;;;26.41;45.97;100014.88;10501167;28;20055;-68
2023/07/03 19:09:12;;;;;;;19.17;4.25;;;;;;;26.44;46.44;100018.91;10500892;28;20041;-68
2023/07/03 19:14:32;;;;;;;14.55;3.63;;;;;;;26.31;48.48;100025.81;10501398;28;20439;-69
2023/07/03 19:19:32;;;;;;;16.55;3.40;;;;;;;25.99;47.41;100009.06;10500246;28;20570;-69
2023/07/03 19:24:34;;;;;;;12.30;3.85;;;;;;;25.26;48.66;99917.88;10501179;28;20055;-68
2023/07/03 19:29:37;;;;;;;11.88;3.28;;;;;;;25.72;48.96;100018.38;10422492;28;20405;-68
2023/07/03 19:34:40;;;;;;;15.25;3.53;;;;;;;25.77;49.02;100031.16;10417100;28;20045;-68
2023/07/03 19:39:41;;;;;;;13.95;3.50;;;;;;;25.61;49.78;100016.81;10417487;28;20037;-69
2023/07/03 19:44:42;;;;;;;14.35;3.95;;;;;;;25.64;49.17;100032.56;10417468;28;20041;-68
2023/07/03 19:49:44;;;;;;;20.90;3.60;;;;;;;25.12;50.17;99961.09;10415578;28;20041;-68
2023/07/03 19:54:44;;;;;;;14.30;3.30;;;;;;;25.44;50.29;100017.09;10416159;28;20045;-68
2023/07/03 19:59:45;;;;;;;14.68;3.80;;;;;;;25.28;51.65;100019.84;10416402;28;20041;-68
2023/07/03 20:04:46;;;;;;;11.05;3.25;;;;;;;24.75;51.99;99962.19;10416839;28;20525;-68
2023/07/03 20:09:47;;;;;;;22.80;3.88;;;;;;;24.62;52.73;99951.03;10416239;28;20107;-68
2023/07/03 20:14:48;;;;;;;10.80;3.83;;;;;;;24.17;53.50;99901.00;10414256;28;20061;-68
2023/07/03 20:19:53;;;;;;;9.32;3.35;;;;;;;24.83;54.17;100021.44;10415953;28;20052;-68
2023/07/03 20:24:54;;;;;;;9.80;3.55;;;;;;;24.71;53.40;99982.00;10414657;28;20065;-68
2023/07/03 20:29:55;;;;;;;11.30;3.60;;;;;;;24.79;53.42;100019.50;10414755;28;20108;-68
2023/07/03 20:40:15;;;;;;;11.82;4.30;;;;;;;24.34;55.74;99985.72;10414370;28;20462;-68
2023/07/03 20:45:18;;;;;;;14.43;3.40;;;;;;;24.26;56.99;100018.81;10414177;28;20124;-67
2023/07/03 20:50:24;;;;;;;21.02;4.65;;;;;;;24.11;58.18;100015.00;10414131;28;20049;-68
2023/07/03 20:55:43;;;;;;;18.85;4.13;;;;;;;23.51;59.48;99937.63;10414618;28;20124;-68
2023/07/03 21:00:44;;;;;;;18.45;3.85;;;;;;;23.29;60.01;99931.56;10414079;28;20045;-68
2023/07/03 21:05:44;;;;;;;19.50;4.55;;;;;;;23.10;61.55;99933.91;10413703;28;20124;-68
2023/07/03 21:10:55;;;;;;;19.25;4.20;;;;;;;23.28;63.19;99965.16;10413247;28;20128;-68
2023/07/03 21:16:00;;;;;;;11.35;4.45;;;;;;;23.55;62.27;100033.66;10413769;28;20072;-68
2023/07/03 21:21:21;;;;;;;9.77;3.63;;;;;;;23.49;62.43;100021.16;10413042;28;20053;-68
2023/07/03 21:26:22;;;;;;;12.73;4.05;;;;;;;23.05;60.97;99964.47;10412741;28;20034;-68
2023/07/03 21:31:26;;;;;;;14.30;4.55;;;;;;;23.36;61.83;100035.13;10412569;28;20065;-68
2023/07/03 21:36:35;;;;;;;10.38;3.85;;;;;;;23.28;62.87;100035.63;10413105;28;20045;-68
2023/07/03 21:41:37;;;;;;;7.43;3.92;;;;;;;23.13;61.98;100034.44;10413274;28;20045;-68
2023/07/03 21:46:37;;;;;;;12.15;4.05;;;;;;;22.96;63.78;100034.53;10413821;28;20378;-68
2023/07/03 21:51:38;;;;;;;9.93;4.07;;;;;;;22.83;64.47;100028.72;10412279;28;20041;-68
2023/07/03 21:56:42;;;;;;;28.88;5.65;;;;;;;22.88;65.04;100037.69;10411927;28;20413;-69
2023/07/03 22:01:43;;;;;;;12.48;4.45;;;;;;;22.75;65.91;100043.53;10464581;28;20041;-67
2023/07/03 22:06:43;;;;;;;10.00;4.32;;;;;;;22.65;66.24;100044.25;10454373;28;20041;-67
2023/07/03 22:11:44;;;;;;;14.15;5.32;;;;;;;22.41;67.39;100032.09;10453609;28;20045;-67
2023/07/03 22:16:45;;;;;;;13.30;4.68;;;;;;;22.27;68.01;100027.03;10462391;28;20519;-68
2023/07/03 22:21:46;;;;;;;9.88;4.53;;;;;;;22.28;67.98;100050.31;10452735;28;20436;-67
2023/07/03 22:26:50;;;;;;;20.48;4.82;;;;;;;22.12;68.75;100053.88;10453417;28;20040;-67
2023/07/03 22:31:51;;;;;;;12.57;4.82;;;;;;;22.06;69.84;100046.78;10453312;28;20049;-68
2023/07/03 22:36:52;;;;;;;12.13;4.63;;;;;;;21.78;70.66;100028.84;10453299;28;20037;-68
2023/07/03 22:41:53;;;;;;;17.73;5.28;;;;;;;21.80;71.98;100051.81;10453292;28;20515;-68
2023/07/03 22:46:55;;;;;;;14.27;4.70;;;;;;;21.58;72.65;100056.38;10453074;28;20044;-68
2023/07/03 22:51:56;;;;;;;10.98;4.90;;;;;;;21.56;73.28;100056.63;10453580;28;20070;-67
2023/07/03 22:56:56;;;;;;;15.88;5.20;;;;;;;21.36;73.68;100023.91;10460266;28;20041;-68
2023/07/03 23:01:57;;;;;;;8.10;4.78;;;;;;;21.58;73.41;100051.78;10459500;28;20045;-67
2023/07/03 23:06:58;;;;;;;10.20;4.60;;;;;;;21.60;73.32;100051.56;10460053;28;20041;-68
2023/07/03 23:11:58;;;;;;;8.05;4.45;;;;;;;21.48;73.62;100056.22;10475125;28;20045;-68
2023/07/03 23:17:03;;;;;;;10.48;4.82;;;;;;;21.46;76.20;100069.19;10458828;28;20056;-68
2023/07/03 23:22:04;;;;;;;19.50;4.82;;;;;;;20.96;75.86;99989.72;10458747;28;20037;-67
2023/07/03 23:27:05;;;;;;;10.32;4.50;;;;;;;21.14;76.84;100046.19;10458886;28;20061;-67
2023/07/03 23:32:07;;;;;;;20.95;5.07;;;;;;;21.07;77.61;100066.34;10459096;28;20076;-67
2023/07/03 23:37:08;;;;;;;12.73;5.22;;;;;;;20.96;78.03;100057.22;10458761;28;20032;-68
2023/07/03 23:42:09;;;;;;;11.88;5.68;;;;;;;20.96;78.77;100036.44;10457788;28;20479;-68
2023/07/03 23:47:10;;;;;;;11.95;4.90;;;;;;;20.73;78.86;100002.31;10458156;28;20083;-67
2023/07/03 23:52:12;;;;;;;13.93;4.90;;;;;;;21.00;79.45;100054.84;10458395;28;20143;-68